Time;durP1;ratioP1;P1;durP2;ratioP2;P2;SDS_P1;SDS_P2;PMS_P1;PMS_P2;Temp;Humidity;BMP_temperature;BMP_pressure;BME280_temperature;BME280_humidity;BME280_pressure;Samples;Min_cycle;Max_cycle;Signal;HPM_P1;HPM_P2
2022/01/04 00:02:25;;;;;;;23.85;6.03;;;7.90;99.90;;;;;;5029635;28;20388;-82
2022/01/04 00:04:50;;;;;;;19.17;5.38;;;7.70;99.90;;;;;;5020615;28;20037;-83
2022/01/04 00:07:19;;;;;;;26.23;5.85;;;7.70;99.90;;;;;;4997019;28;20037;-83
2022/01/04 00:09:45;;;;;;;23.05;5.85;;;8.10;99.90;;;;;;5029595;28;20514;-84
2022/01/04 00:14:57;;;;;;;19.88;5.28;;;7.70;99.90;;;;;;5040480;28;20044;-82
2022/01/04 00:17:23;;;;;;;22.55;5.43;;;7.80;99.90;;;;;;5045427;28;20033;-82
2022/01/04 00:19:49;;;;;;;26.08;5.07;;;7.80;99.90;;;;;;5014883;28;20281;-82
2022/01/04 00:22:17;;;;;;;25.90;5.97;;;7.70;99.90;;;;;;5010476;28;20491;-82
2022/01/04 00:24:43;;;;;;;20.17;5.57;;;7.70;99.90;;;;;;5014645;28;20091;-83
2022/01/04 00:27:09;;;;;;;27.15;5.75;;;7.70;99.90;;;;;;5028320;28;20429;-82
2022/01/04 00:29:35;;;;;;;22.35;6.28;;;;;;;;;;5026786;28;20055;-82
2022/01/04 00:32:01;;;;;;;20.75;5.95;;;7.70;99.90;;;;;;5018817;28;20029;-81
2022/01/04 00:34:27;;;;;;;23.40;5.75;;;7.60;99.90;;;;;;5031224;28;20037;-83
2022/01/04 00:36:53;;;;;;;22.90;5.30;;;7.70;99.90;;;;;;5028527;28;20037;-83
2022/01/04 00:39:18;;;;;;;23.08;5.82;;;7.60;99.90;;;;;;5011037;28;20346;-82
2022/01/04 00:41:44;;;;;;;21.83;5.45;;;7.70;99.90;;;;;;5022067;28;20419;-81
2022/01/04 00:44:13;;;;;;;21.88;5.25;;;7.60;99.90;;;;;;4993768;28;20041;-82
2022/01/04 00:46:39;;;;;;;21.80;6.28;;;6.70;99.90;;;;;;5030269;28;20035;-82
2022/01/04 00:49:11;;;;;;;20.85;5.75;;;7.70;99.90;;;;;;5031893;28;20041;-82
2022/01/04 00:51:45;;;;;;;30.73;6.70;;;7.70;99.90;;;;;;5027064;28;20102;-82
2022/01/04 00:54:16;;;;;;;22.98;5.78;;;7.60;99.90;;;;;;5030496;28;20041;-81
2022/01/04 00:56:46;;;;;;;19.45;6.25;;;8.40;99.90;;;;;;5029614;28;20127;-83
2022/01/04 00:59:12;;;;;;;22.10;5.97;;;9.10;99.90;;;;;;5012824;28;20083;-82
2022/01/04 01:01:39;;;;;;;19.08;5.55;;;;;;;;;;5009346;28;20048;-81
2022/01/04 01:04:06;;;;;;;22.13;6.00;;;7.60;99.90;;;;;;5028041;28;20466;-80
2022/01/04 01:06:36;;;;;;;29.55;6.65;;;7.60;99.90;;;;;;5014755;28;20037;-82
2022/01/04 01:09:03;;;;;;;24.27;5.50;;;7.60;99.90;;;;;;5007318;28;20041;-83
2022/01/04 01:11:29;;;;;;;26.05;5.75;;;7.60;99.90;;;;;;5013024;28;20466;-82
2022/01/04 01:13:56;;;;;;;22.23;6.00;;;;;;;;;;5013933;28;20439;-82
2022/01/04 01:16:22;;;;;;;24.13;6.20;;;7.60;99.90;;;;;;5030813;28;20574;-83
2022/01/04 01:18:48;;;;;;;29.55;6.47;;;7.60;99.90;;;;;;5026474;28;20495;-84
2022/01/04 01:21:17;;;;;;;20.23;5.60;;;9.10;99.90;;;;;;5044428;28;20106;-83
2022/01/04 01:23:43;;;;;;;20.83;5.43;;;7.60;99.90;;;;;;5028876;28;20132;-82
2022/01/04 01:26:20;;;;;;;22.83;5.90;;;7.60;99.90;;;;;;5013425;28;20056;-83
2022/01/04 01:28:46;;;;;;;24.15;5.38;;;7.60;99.90;;;;;;5011845;28;20121;-82
2022/01/04 01:31:12;;;;;;;25.38;5.80;;;7.70;99.90;;;;;;5007603;28;20044;-82
2022/01/04 01:33:38;;;;;;;22.90;5.72;;;7.70;99.90;;;;;;5030685;28;20049;-83
2022/01/04 01:36:04;;;;;;;23.70;5.75;;;7.70;99.90;;;;;;5030677;28;20464;-82
2022/01/04 01:38:33;;;;;;;22.33;5.68;;;7.80;99.90;;;;;;5026748;28;20683;-82
2022/01/04 01:40:59;;;;;;;21.52;5.65;;;9.40;99.90;;;;;;5024397;28;20072;-81
2022/01/04 01:43:28;;;;;;;21.55;5.97;;;8.30;99.90;;;;;;5029864;28;20045;-81
2022/01/04 01:45:55;;;;;;;18.90;5.82;;;7.80;99.90;;;;;;5039073;28;20117;-83
2022/01/04 01:48:22;;;;;;;24.77;5.35;;;7.80;99.90;;;;;;5007476;28;20087;-84
2022/01/04 01:50:48;;;;;;;17.65;5.60;;;7.90;99.90;;;;;;5014472;28;20417;-83
2022/01/04 01:53:17;;;;;;;21.95;6.10;;;7.90;99.90;;;;;;5012762;28;20056;-82
2022/01/04 01:55:45;;;;;;;25.30;6.63;;;7.90;99.90;;;;;;5011528;28;20204;-83
2022/01/04 01:58:11;;;;;;;20.55;5.30;;;7.90;99.90;;;;;;4997465;28;20060;-84
2022/01/04 02:00:38;;;;;;;21.08;6.40;;;7.90;99.90;;;;;;5013275;28;20041;-82
2022/01/04 02:03:04;;;;;;;22.70;6.00;;;7.90;99.90;;;;;;5043889;28;20033;-82
2022/01/04 02:05:31;;;;;;;21.55;6.05;;;7.90;99.90;;;;;;4991518;28;20368;-82
2022/01/04 02:08:01;;;;;;;19.15;5.97;;;7.90;99.90;;;;;;5020390;28;20048;-82
2022/01/04 02:10:27;;;;;;;21.38;5.88;;;7.90;99.90;;;;;;5030595;28;20066;-81
2022/01/04 02:12:54;;;;;;;24.45;5.85;;;8.00;99.90;;;;;;5012546;28;20049;-82
2022/01/04 02:15:22;;;;;;;24.73;6.78;;;8.00;99.90;;;;;;5031545;28;20045;-82
2022/01/04 02:17:49;;;;;;;26.33;5.57;;;8.00;99.90;;;;;;5040100;28;20068;-82
2022/01/04 02:20:16;;;;;;;20.75;5.28;;;8.40;99.90;;;;;;5028409;28;20029;-83
2022/01/04 02:22:42;;;;;;;22.77;5.40;;;8.00;99.90;;;;;;5012643;28;20072;-80
2022/01/04 02:25:09;;;;;;;26.52;6.03;;;7.90;99.90;;;;;;5011591;28;20138;-82
2022/01/04 02:27:36;;;;;;;21.85;5.55;;;8.00;99.90;;;;;;5025968;28;20158;-81
2022/01/04 02:30:06;;;;;;;26.73;6.22;;;7.90;99.90;;;;;;5044739;28;20174;-81
2022/01/04 02:32:32;;;;;;;23.42;5.25;;;;;;;;;;5009761;28;20116;-82
2022/01/04 02:34:59;;;;;;;21.45;5.50;;;7.90;99.90;;;;;;5029198;28;20045;-82
2022/01/04 02:37:27;;;;;;;22.50;5.70;;;7.90;99.90;;;;;;5015462;28;20140;-81
2022/01/04 02:39:53;;;;;;;26.40;5.75;;;7.90;99.90;;;;;;5007903;28;20155;-83
2022/01/04 02:42:20;;;;;;;31.73;5.97;;;7.90;99.90;;;;;;5028967;28;20103;-84
2022/01/04 02:44:46;;;;;;;23.38;5.07;;;7.80;99.90;;;;;;5002583;28;20540;-81
2022/01/04 02:47:13;;;;;;;22.42;5.13;;;6.50;99.90;;;;;;4990695;28;20424;-82
2022/01/04 02:49:39;;;;;;;21.08;4.68;;;8.60;99.90;;;;;;5024332;28;20044;-81
2022/01/04 02:52:05;;;;;;;29.77;5.88;;;;;;;;;;5010482;28;20033;-83
2022/01/04 02:54:31;;;;;;;21.35;5.05;;;7.80;99.90;;;;;;5012096;28;20040;-82
2022/01/04 02:56:57;;;;;;;19.40;5.22;;;7.80;99.90;;;;;;5014491;28;20110;-82
2022/01/04 02:59:30;;;;;;;23.17;5.07;;;7.90;99.90;;;;;;4997685;28;20053;-83
2022/01/04 03:01:56;;;;;;;23.65;5.60;;;7.90;99.90;;;;;;5015855;28;20041;-82
2022/01/04 03:04:22;;;;;;;27.23;5.03;;;7.90;99.90;;;;;;5033441;28;20121;-81
2022/01/04 03:06:48;;;;;;;24.20;4.78;;;7.90;99.90;;;;;;5045968;28;20505;-82
2022/01/04 03:09:15;;;;;;;24.20;5.80;;;7.90;99.90;;;;;;5018964;28;20063;-82
2022/01/04 03:11:50;;;;;;;18.42;4.85;;;7.90;99.90;;;;;;5015598;28;20617;-81
2022/01/04 03:14:19;;;;;;;24.17;5.60;;;7.90;99.90;;;;;;5033192;28;20132;-81
2022/01/04 03:16:46;;;;;;;22.73;5.32;;;9.00;99.90;;;;;;5046755;28;20163;-83
2022/01/04 03:19:11;;;;;;;26.33;5.57;;;7.90;99.90;;;;;;5033263;28;20052;-84
2022/01/04 03:21:42;;;;;;;23.00;5.80;;;9.20;99.90;;;;;;5029578;28;20040;-82
2022/01/04 03:24:12;;;;;;;23.75;5.55;;;7.90;99.90;;;;;;5042005;28;20407;-84
2022/01/04 03:26:41;;;;;;;25.05;5.45;;;7.90;99.90;;;;;;5013002;28;20045;-82
2022/01/04 03:29:08;;;;;;;22.90;4.93;;;7.90;99.90;;;;;;5029250;28;20101;-82
2022/01/04 03:31:35;;;;;;;18.33;5.03;;;7.90;99.90;;;;;;5032017;28;20519;-81
2022/01/04 03:34:02;;;;;;;23.00;5.82;;;7.90;99.90;;;;;;5016490;28;20037;-83
2022/01/04 03:36:28;;;;;;;21.85;5.72;;;7.90;99.90;;;;;;5031141;28;20048;-83
2022/01/04 03:38:56;;;;;;;27.45;5.65;;;7.90;99.90;;;;;;5029977;28;20037;-82
2022/01/04 03:41:24;;;;;;;20.33;5.47;;;7.80;99.90;;;;;;5012797;28;20069;-83
2022/01/04 03:43:53;;;;;;;29.13;6.35;;;7.00;99.90;;;;;;5012672;28;20087;-82
2022/01/04 03:46:22;;;;;;;21.05;5.30;;;7.90;99.90;;;;;;5015873;28;20045;-81
2022/01/04 03:48:50;;;;;;;22.20;5.75;;;8.00;99.90;;;;;;5049681;28;20196;-82
2022/01/04 03:51:17;;;;;;;20.65;5.95;;;7.90;99.90;;;;;;5030307;28;20033;-81
2022/01/04 03:53:42;;;;;;;23.83;5.90;;;7.70;99.90;;;;;;5013609;28;20056;-82
2022/01/04 03:56:09;;;;;;;24.60;6.20;;;7.90;99.90;;;;;;5018501;28;20037;-82
2022/01/04 03:58:35;;;;;;;21.13;5.40;;;7.90;99.90;;;;;;5037393;28;20061;-83
2022/01/04 04:01:04;;;;;;;24.02;5.88;;;7.90;99.90;;;;;;5027030;28;20068;-82
2022/01/04 04:03:30;;;;;;;23.38;5.65;;;7.90;99.90;;;;;;5031497;28;20068;-82
2022/01/04 04:05:56;;;;;;;18.90;5.75;;;7.90;99.90;;;;;;5025145;28;20053;-81
2022/01/04 04:08:22;;;;;;;23.17;5.57;;;7.80;99.90;;;;;;5011080;28;20055;-81
2022/01/04 04:10:48;;;;;;;20.30;6.15;;;;;;;;;;5046282;28;20041;-79
2022/01/04 04:13:14;;;;;;;23.83;5.78;;;7.90;99.90;;;;;;5029158;28;20124;-82
2022/01/04 04:15:40;;;;;;;21.10;5.55;;;7.90;99.90;;;;;;5025820;28;20140;-81
2022/01/04 04:18:09;;;;;;;30.45;6.97;;;8.80;99.90;;;;;;4993171;28;20041;-83
2022/01/04 04:20:36;;;;;;;20.15;5.78;;;7.90;99.90;;;;;;5027508;28;20546;-82
2022/01/04 04:23:05;;;;;;;22.67;5.75;;;7.90;99.90;;;;;;5014615;28;20530;-83
2022/01/04 04:25:32;;;;;;;18.65;5.60;;;7.90;99.90;;;;;;5006341;28;20041;-81
2022/01/04 04:28:00;;;;;;;22.50;5.65;;;8.20;99.90;;;;;;5029126;28;20354;-82
2022/01/04 04:30:27;;;;;;;24.48;5.43;;;;;;;;;;5015838;28;20047;-82
2022/01/04 04:32:52;;;;;;;20.92;5.47;;;7.90;99.90;;;;;;5031175;28;20045;-83
2022/01/04 04:35:19;;;;;;;25.58;6.22;;;;;;;;;;5031656;28;20037;-84
2022/01/04 04:37:45;;;;;;;20.77;5.88;;;7.90;99.90;;;;;;5030019;28;20084;-83
2022/01/04 04:40:11;;;;;;;28.02;6.70;;;7.90;99.90;;;;;;5037405;28;20414;-82
2022/01/04 04:42:39;;;;;;;25.52;6.00;;;7.90;99.90;;;;;;5029339;28;20045;-82
2022/01/04 04:45:06;;;;;;;21.33;6.65;;;7.90;99.90;;;;;;5029996;28;20045;-82
2022/01/04 04:47:32;;;;;;;24.85;6.63;;;7.90;99.90;;;;;;5031441;28;20029;-81
2022/01/04 04:49:58;;;;;;;17.27;5.50;;;7.90;99.90;;;;;;5030849;28;20044;-82
2022/01/04 04:52:24;;;;;;;19.83;6.03;;;7.90;99.90;;;;;;5028913;28;20233;-82
2022/01/04 04:54:50;;;;;;;29.17;6.90;;;7.90;99.90;;;;;;5013670;28;20044;-83
2022/01/04 04:57:15;;;;;;;22.45;6.90;;;7.90;99.90;;;;;;5011747;28;20132;-82
2022/01/04 04:59:42;;;;;;;27.85;7.63;;;7.80;99.90;;;;;;5010870;28;20392;-83
2022/01/04 05:02:08;;;;;;;24.70;6.97;;;7.80;99.90;;;;;;5031219;28;20125;-82
2022/01/04 05:04:34;;;;;;;23.95;7.30;;;7.90;99.90;;;;;;5031415;28;20033;-82
2022/01/04 05:07:01;;;;;;;25.33;7.53;;;7.80;99.90;;;;;;5042043;28;20036;-83
2022/01/04 05:09:27;;;;;;;23.90;7.43;;;7.60;99.90;;;;;;5028884;28;20040;-83
2022/01/04 05:11:53;;;;;;;22.83;8.45;;;7.90;99.90;;;;;;5036875;28;20120;-83
2022/01/04 05:14:21;;;;;;;22.40;8.02;;;7.90;99.90;;;;;;5029185;28;20068;-81
2022/01/04 05:16:47;;;;;;;29.83;8.65;;;7.90;99.90;;;;;;4996944;28;20048;-82
2022/01/04 05:19:13;;;;;;;29.42;8.63;;;7.90;99.90;;;;;;5029988;28;20120;-81
2022/01/04 05:21:42;;;;;;;23.25;8.30;;;7.90;99.90;;;;;;5013578;28;20041;-83
2022/01/04 05:24:11;;;;;;;22.83;8.23;;;7.90;99.90;;;;;;5021632;28;20172;-82
2022/01/04 05:26:46;;;;;;;26.75;8.38;;;7.80;99.90;;;;;;5012524;28;20145;-82
2022/01/04 05:29:17;;;;;;;27.48;8.68;;;7.90;99.90;;;;;;5027271;28;20440;-82
2022/01/04 05:31:43;;;;;;;28.00;8.85;;;7.90;99.90;;;;;;5040908;28;20040;-82
2022/01/04 05:34:14;;;;;;;22.02;8.43;;;7.90;99.90;;;;;;5012831;28;20037;-82
2022/01/04 05:36:40;;;;;;;28.00;8.65;;;6.50;99.90;;;;;;5014436;28;20068;-82
2022/01/04 05:39:07;;;;;;;24.42;9.10;;;7.80;99.90;;;;;;5010344;28;20118;-82
2022/01/04 05:41:33;;;;;;;32.60;9.35;;;7.80;99.90;;;;;;5023605;28;20037;-82
2022/01/04 05:44:04;;;;;;;29.35;9.77;;;7.80;99.90;;;;;;5008330;28;20230;-81
2022/01/04 05:46:33;;;;;;;26.15;9.02;;;7.80;99.90;;;;;;5012085;28;20059;-81
2022/01/04 05:48:59;;;;;;;23.60;8.65;;;7.80;99.90;;;;;;5012643;28;20484;-81
2022/01/04 05:51:25;;;;;;;21.33;8.90;;;7.50;99.90;;;;;;5024848;28;20047;-82
2022/01/04 05:53:51;;;;;;;27.63;8.95;;;;;;;;;;5010716;28;20033;-82
2022/01/04 05:56:17;;;;;;;26.40;9.50;;;7.80;99.90;;;;;;5027744;28;20510;-83
2022/01/04 05:58:43;;;;;;;25.02;9.15;;;7.70;99.90;;;;;;5026633;28;20041;-82
2022/01/04 06:01:09;;;;;;;29.75;9.48;;;7.70;99.90;;;;;;5028578;28;20047;-82
2022/01/04 06:03:37;;;;;;;30.83;10.40;;;7.70;99.90;;;;;;5006266;28;20134;-82
2022/01/04 06:06:03;;;;;;;26.23;10.15;;;8.10;99.90;;;;;;5020697;28;20495;-82
2022/01/04 06:08:34;;;;;;;32.75;9.90;;;7.60;99.90;;;;;;5028253;28;20054;-83
2022/01/04 06:11:00;;;;;;;26.77;9.13;;;;;;;;;;5040124;28;20407;-82
2022/01/04 06:16:11;;;;;;;26.40;9.43;;;7.70;99.90;;;;;;5028606;28;20041;-82
2022/01/04 06:18:37;;;;;;;25.10;8.95;;;7.70;99.90;;;;;;5027720;28;20056;-81
2022/01/04 06:21:05;;;;;;;27.20;9.07;;;7.70;99.90;;;;;;5013435;28;20037;-82
2022/01/04 06:23:31;;;;;;;24.92;8.70;;;7.70;99.90;;;;;;5011539;28;20515;-82
2022/01/04 06:25:57;;;;;;;26.10;8.90;;;7.70;99.90;;;;;;5012993;28;20040;-82
2022/01/04 06:28:23;;;;;;;30.45;9.38;;;7.70;99.90;;;;;;5011868;28;20045;-82
2022/01/04 06:30:52;;;;;;;31.98;9.25;;;7.70;99.90;;;;;;5014464;28;20116;-82
2022/01/04 06:33:21;;;;;;;22.90;8.85;;;7.80;99.90;;;;;;5035334;28;20044;-82
2022/01/04 06:35:50;;;;;;;26.38;8.30;;;7.80;99.90;;;;;;5018130;28;20072;-83
2022/01/04 06:38:22;;;;;;;29.15;8.60;;;7.80;99.90;;;;;;5010420;28;20064;-82
2022/01/04 06:40:50;;;;;;;28.85;8.40;;;7.80;99.90;;;;;;5018299;28;20123;-81
2022/01/04 06:43:17;;;;;;;26.80;8.15;;;;;;;;;;5013661;28;20053;-82
2022/01/04 06:45:46;;;;;;;24.70;7.93;;;7.80;99.90;;;;;;5018872;28;20403;-83
2022/01/04 06:48:11;;;;;;;24.45;8.13;;;7.80;99.90;;;;;;5000962;28;20043;-81
2022/01/04 06:50:43;;;;;;;27.67;8.75;;;7.80;99.90;;;;;;5030973;28;20033;-82
2022/01/04 06:53:09;;;;;;;28.83;8.18;;;7.80;99.90;;;;;;5033869;28;20044;-81
2022/01/04 06:55:35;;;;;;;25.30;8.55;;;7.80;99.90;;;;;;5029260;28;20041;-83
2022/01/04 06:58:01;;;;;;;27.30;9.25;;;7.80;99.90;;;;;;5048584;28;20160;-81
2022/01/04 07:00:26;;;;;;;26.02;8.32;;;7.80;99.90;;;;;;5033955;28;20032;-83
2022/01/04 07:02:52;;;;;;;28.33;8.93;;;7.70;99.90;;;;;;5035089;28;20041;-81
2022/01/04 07:05:18;;;;;;;26.23;8.48;;;7.80;99.90;;;;;;5032788;28;20049;-82
2022/01/04 07:07:44;;;;;;;26.27;8.27;;;7.70;99.90;;;;;;5035241;28;20129;-82
2022/01/04 07:10:10;;;;;;;24.88;7.53;;;7.80;99.90;;;;;;5052356;28;20071;-83
2022/01/04 07:12:36;;;;;;;23.70;7.65;;;6.40;99.90;;;;;;5035537;28;20057;-82
2022/01/04 07:15:02;;;;;;;21.55;7.05;;;7.70;99.90;;;;;;5018628;28;20119;-83
2022/01/04 07:17:28;;;;;;;18.15;6.85;;;7.70;99.90;;;;;;5035955;28;20037;-82
2022/01/04 07:19:54;;;;;;;22.38;7.15;;;7.70;99.90;;;;;;5034304;28;20667;-82
2022/01/04 07:22:21;;;;;;;24.38;7.25;;;7.70;99.90;;;;;;5034273;28;20076;-82
2022/01/04 07:24:46;;;;;;;22.90;7.30;;;7.60;99.90;;;;;;5011745;28;20361;-82
2022/01/04 07:27:12;;;;;;;23.98;7.35;;;7.70;99.90;;;;;;5026698;28;20099;-82
2022/01/04 07:29:38;;;;;;;24.02;8.30;;;7.70;99.90;;;;;;5033298;28;20495;-82
2022/01/04 07:32:04;;;;;;;25.42;7.57;;;7.70;99.90;;;;;;5030587;28;20098;-81
2022/01/04 07:34:31;;;;;;;20.65;7.57;;;7.70;99.90;;;;;;5053987;28;20191;-81
2022/01/04 07:36:57;;;;;;;22.55;7.30;;;7.70;99.90;;;;;;5017314;28;20519;-82
2022/01/04 07:39:26;;;;;;;20.02;7.50;;;7.70;99.90;;;;;;5016042;28;20041;-84
2022/01/04 07:41:52;;;;;;;23.23;7.03;;;8.80;99.90;;;;;;5020050;28;20049;-83
2022/01/04 07:44:17;;;;;;;15.90;6.97;;;7.70;99.90;;;;;;5029115;28;20043;-82
2022/01/04 07:46:43;;;;;;;21.13;7.07;;;7.70;99.90;;;;;;5044297;28;20483;-81
2022/01/04 07:49:09;;;;;;;19.77;6.50;;;6.00;99.90;;;;;;5038447;28;20067;-82
2022/01/04 07:51:35;;;;;;;19.67;6.20;;;7.60;99.90;;;;;;5036425;28;20053;-82
2022/01/04 07:54:01;;;;;;;22.05;6.13;;;7.60;99.90;;;;;;5052458;28;20522;-83
2022/01/04 07:56:27;;;;;;;19.63;5.32;;;7.70;99.90;;;;;;5033263;28;20041;-82
2022/01/04 07:58:54;;;;;;;18.35;5.88;;;7.60;99.90;;;;;;5054711;28;20045;-82
2022/01/04 08:01:23;;;;;;;19.02;5.00;;;;;;;;;;5037425;28;20028;-82
2022/01/04 08:03:49;;;;;;;14.77;3.72;;;7.60;99.90;;;;;;5014112;28;20042;-82
2022/01/04 08:06:21;;;;;;;11.63;3.00;;;7.60;99.90;;;;;;5030679;28;20040;-81
2022/01/04 08:08:47;;;;;;;13.43;3.03;;;7.60;99.90;;;;;;5036120;28;20040;-83
2022/01/04 08:11:20;;;;;;;11.77;3.00;;;7.60;99.90;;;;;;5058855;28;20053;-83
2022/01/04 08:13:46;;;;;;;12.93;3.35;;;7.50;99.90;;;;;;5045202;28;20049;-85
2022/01/04 08:16:18;;;;;;;13.63;3.33;;;7.50;99.90;;;;;;5044728;28;20021;-84
2022/01/04 08:18:44;;;;;;;10.55;2.80;;;7.50;99.90;;;;;;5021891;28;20398;-86
2022/01/04 08:21:11;;;;;;;12.52;3.10;;;7.50;99.90;;;;;;5029182;28;20086;-82
2022/01/04 08:23:37;;;;;;;12.63;3.30;;;;;;;;;;5029496;28;20096;-82
2022/01/04 08:26:05;;;;;;;17.55;3.67;;;7.50;99.90;;;;;;5040695;28;20041;-82
2022/01/04 08:28:37;;;;;;;17.58;4.00;;;7.40;99.90;;;;;;5028043;28;20183;-82
2022/01/04 08:31:06;;;;;;;15.82;3.67;;;7.50;99.90;;;;;;5044687;28;20037;-83
2022/01/04 08:33:32;;;;;;;14.45;3.40;;;7.50;99.90;;;;;;5042805;28;20048;-83
2022/01/04 08:36:01;;;;;;;13.75;3.65;;;7.50;99.90;;;;;;5028356;28;20040;-82
2022/01/04 08:38:26;;;;;;;15.45;3.40;;;7.50;99.90;;;;;;5061690;28;20230;-84
2022/01/04 08:40:55;;;;;;;13.00;3.53;;;7.50;99.90;;;;;;5039574;28;20323;-84
2022/01/04 08:43:21;;;;;;;16.13;3.70;;;7.50;99.90;;;;;;5040099;28;20079;-84
2022/01/04 08:45:53;;;;;;;13.98;3.78;;;7.50;99.90;;;;;;5038947;28;20044;-83
2022/01/04 08:48:19;;;;;;;15.70;3.88;;;7.30;99.90;;;;;;5043811;28;20053;-82
2022/01/04 08:50:49;;;;;;;12.38;3.50;;;8.20;99.90;;;;;;5044678;28;20369;-84
2022/01/04 08:53:16;;;;;;;11.63;3.28;;;;;;;;;;5026184;28;20025;-84
2022/01/04 08:55:42;;;;;;;15.73;3.95;;;7.50;99.90;;;;;;5059210;28;20946;-82
2022/01/04 08:58:08;;;;;;;12.98;3.85;;;7.50;99.90;;;;;;5043944;28;20047;-82
2022/01/04 09:00:37;;;;;;;11.93;3.70;;;7.50;99.90;;;;;;5042583;28;20028;-84
2022/01/04 09:03:04;;;;;;;12.65;3.58;;;7.50;99.90;;;;;;5044171;28;20164;-83
2022/01/04 09:05:30;;;;;;;15.82;3.97;;;7.50;99.90;;;;;;5058671;28;20052;-83
2022/01/04 09:07:55;;;;;;;18.02;4.40;;;7.50;99.90;;;;;;5044188;28;20075;-83
2022/01/04 09:10:21;;;;;;;13.80;3.38;;;7.50;99.90;;;;;;5027496;28;20230;-82
2022/01/04 09:15:45;;;;;;;11.85;2.55;;;7.40;99.90;;;;;;5051641;28;20116;-84
2022/01/04 09:20:55;;;;;;;8.10;1.77;;;7.60;99.90;;;;;;5039198;28;20064;-84
2022/01/04 09:23:28;;;;;;;6.95;1.35;;;7.00;99.90;;;;;;5019026;28;20037;-85
2022/01/04 09:25:57;;;;;;;7.78;1.70;;;7.00;99.90;;;;;;5037234;28;20151;-85
2022/01/04 09:28:25;;;;;;;12.07;1.75;;;6.90;99.90;;;;;;5043622;28;20036;-84
2022/01/04 09:30:51;;;;;;;12.10;1.98;;;6.90;99.90;;;;;;5041395;28;20115;-83
2022/01/04 09:33:18;;;;;;;11.15;1.65;;;6.90;99.90;;;;;;5037301;28;20036;-82
2022/01/04 09:35:44;;;;;;;9.40;1.90;;;6.90;99.90;;;;;;5022892;28;20135;-82
2022/01/04 09:38:12;;;;;;;8.27;1.58;;;6.90;99.90;;;;;;5032782;28;20033;-82
2022/01/04 09:40:39;;;;;;;7.20;1.67;;;6.90;99.90;;;;;;5050507;28;20083;-83
2022/01/04 09:43:06;;;;;;;12.23;1.90;;;6.90;99.90;;;;;;5049939;28;20061;-83
2022/01/04 09:45:35;;;;;;;11.75;2.08;;;6.80;99.90;;;;;;5017844;28;20044;-81
2022/01/04 09:48:01;;;;;;;10.80;1.65;;;6.80;99.90;;;;;;5022180;28;20338;-83
2022/01/04 09:50:27;;;;;;;8.25;1.58;;;6.80;99.90;;;;;;5025342;28;20036;-85
2022/01/04 09:52:59;;;;;;;8.60;1.50;;;6.80;99.90;;;;;;5034370;28;20174;-84
2022/01/04 09:55:24;;;;;;;9.75;2.00;;;6.70;99.90;;;;;;5040201;28;20052;-82
2022/01/04 09:57:50;;;;;;;8.30;1.80;;;6.70;99.90;;;;;;5023552;28;20268;-82
2022/01/04 10:00:17;;;;;;;8.65;1.63;;;6.70;99.90;;;;;;5039931;28;20029;-82
2022/01/04 10:02:50;;;;;;;6.55;1.70;;;6.60;99.90;;;;;;5042243;28;20071;-83
2022/01/04 10:05:23;;;;;;;9.65;1.77;;;6.60;99.90;;;;;;5022581;28;20049;-83
2022/01/04 10:07:59;;;;;;;6.70;1.50;;;6.60;99.90;;;;;;5024537;28;20262;-84
2022/01/04 10:10:25;;;;;;;8.52;1.48;;;6.50;99.90;;;;;;5041799;28;20133;-81
2022/01/04 10:13:05;;;;;;;8.77;1.50;;;6.70;99.90;;;;;;5024728;28;20430;-81
2022/01/04 10:15:45;;;;;;;7.53;1.75;;;6.50;99.90;;;;;;5023917;28;20048;-83
2022/01/04 10:18:14;;;;;;;8.07;1.70;;;6.40;99.90;;;;;;5017576;28;20041;-82
2022/01/04 10:20:46;;;;;;;4.38;1.10;;;6.30;99.90;;;;;;5041399;28;20202;-83
2022/01/04 10:23:14;;;;;;;7.18;1.70;;;6.20;99.90;;;;;;5018608;28;20307;-83
2022/01/04 10:25:44;;;;;;;8.85;1.65;;;6.50;99.90;;;;;;5010141;28;20042;-83
2022/01/04 10:28:35;;;;;;;8.00;2.08;;;6.00;99.90;;;;;;5028538;28;20103;-87
2022/01/04 10:31:11;;;;;;;7.50;1.60;;;6.00;99.90;;;;;;5017520;28;20036;-82
2022/01/04 10:33:40;;;;;;;9.40;1.90;;;6.00;99.90;;;;;;5053943;28;20037;-85
2022/01/04 10:36:12;;;;;;;5.65;1.58;;;6.00;99.90;;;;;;5022707;28;20033;-84
2022/01/04 10:38:40;;;;;;;7.27;1.50;;;5.90;99.90;;;;;;5022401;28;20041;-83
2022/01/04 10:41:11;;;;;;;4.90;1.10;;;5.90;99.90;;;;;;5025626;28;20235;-82
2022/01/04 10:43:48;;;;;;;14.32;1.42;;;6.20;99.90;;;;;;5055874;28;20136;-81
2022/01/04 10:46:18;;;;;;;4.97;1.13;;;6.00;99.90;;;;;;5056123;28;20132;-83
2022/01/04 10:48:46;;;;;;;8.13;1.60;;;6.40;99.90;;;;;;5025424;28;20028;-82
2022/01/04 10:51:18;;;;;;;6.00;1.38;;;6.00;99.90;;;;;;5042858;28;20040;-83
2022/01/04 10:54:00;;;;;;;4.05;1.35;;;4.40;99.90;;;;;;5025759;28;20045;-82
2022/01/04 10:56:34;;;;;;;8.15;1.23;;;6.00;99.90;;;;;;5037003;28;20287;-83
2022/01/04 10:59:07;;;;;;;5.47;1.30;;;6.10;99.90;;;;;;5036943;28;20284;-82
2022/01/04 11:01:43;;;;;;;4.47;1.13;;;6.60;99.90;;;;;;5018794;28;20219;-85
2022/01/04 11:04:15;;;;;;;5.32;1.20;;;6.20;99.90;;;;;;5010880;28;20037;-82
2022/01/04 11:06:42;;;;;;;8.93;1.50;;;6.30;99.90;;;;;;5012955;23;20139;-88
2022/01/04 11:09:10;;;;;;;3.30;1.10;;;6.20;99.90;;;;;;4978138;28;20064;-86
2022/01/04 11:11:36;;;;;;;7.03;1.50;;;7.00;99.90;;;;;;4994480;28;20041;-87
2022/01/04 11:14:03;;;;;;;6.32;1.30;;;7.10;99.90;;;;;;4975059;28;20033;-86
2022/01/04 11:16:30;;;;;;;5.15;1.10;;;6.10;99.90;;;;;;5010659;28;20049;-86
2022/01/04 11:18:57;;;;;;;2.30;0.88;;;6.00;99.90;;;;;;5011957;28;20037;-86
2022/01/04 11:21:24;;;;;;;1.08;0.68;;;5.90;99.90;;;;;;4997035;28;20057;-86
2022/01/04 11:23:52;;;;;;;3.60;0.80;;;6.80;99.90;;;;;;4998051;28;20045;-85
2022/01/04 11:26:19;;;;;;;1.55;0.68;;;5.70;99.90;;;;;;4982441;28;20099;-85
2022/01/04 11:28:51;;;;;;;4.65;1.05;;;6.80;99.90;;;;;;4982542;28;20430;-85
2022/01/04 11:31:47;;;;;;;3.30;1.30;;;6.20;99.90;;;;;;4994847;28;20038;-85
2022/01/04 11:34:24;;;;;;;9.45;1.40;;;5.60;99.90;;;;;;4991970;28;20041;-85
2022/01/04 11:36:51;;;;;;;5.65;1.30;;;5.40;99.90;;;;;;4991136;28;20068;-84
2022/01/04 11:39:40;;;;;;;11.70;1.60;;;6.40;99.90;;;;;;4990085;28;20503;-85
2022/01/04 11:42:11;;;;;;;8.35;1.48;;;5.40;99.90;;;;;;4974331;28;20064;-85
2022/01/04 11:44:47;;;;;;;6.20;1.17;;;5.40;99.90;;;;;;5011057;28;20124;-85
2022/01/04 11:47:25;;;;;;;7.88;1.48;;;5.50;99.90;;;;;;4987779;28;20068;-85
2022/01/04 11:50:13;;;;;;;7.80;1.77;;;5.50;99.90;;;;;;4980440;28;20033;-85
2022/01/04 11:52:49;;;;;;;7.65;1.30;;;5.60;99.90;;;;;;4980157;28;20129;-85
2022/01/04 11:55:18;;;;;;;7.05;1.67;;;5.60;99.90;;;;;;5013518;28;20065;-85
2022/01/04 11:57:44;;;;;;;7.07;1.38;;;5.60;99.90;;;;;;4997098;28;20159;-85
2022/01/04 12:00:10;;;;;;;8.95;1.50;;;6.20;99.90;;;;;;5003145;28;20045;-85
2022/01/04 12:02:38;;;;;;;8.00;1.52;;;5.70;99.90;;;;;;4970025;28;20073;-85
2022/01/04 12:05:24;;;;;;;10.55;1.50;;;6.90;99.90;;;;;;5006646;28;20118;-85
2022/01/04 12:08:14;;;;;;;8.52;1.30;;;5.70;99.90;;;;;;5011485;28;20053;-85
2022/01/04 12:10:40;;;;;;;3.22;1.15;;;5.80;99.90;;;;;;4984610;28;20037;-85
2022/01/04 12:13:18;;;;;;;8.88;1.60;;;6.40;99.90;;;;;;5029484;28;20041;-85
2022/01/04 12:15:49;;;;;;;9.10;2.08;;;5.80;99.90;;;;;;4995632;28;20130;-85
2022/01/04 12:18:23;;;;;;;6.35;1.55;;;5.80;99.90;;;;;;4997115;28;20045;-85
2022/01/04 12:20:52;;;;;;;11.00;1.80;;;5.90;99.90;;;;;;5022645;28;20518;-85
2022/01/04 12:23:48;;;;;;;6.85;1.38;;;5.90;99.90;;;;;;5020112;28;20044;-85
2022/01/04 12:26:16;;;;;;;7.25;1.60;;;5.90;99.90;;;;;;5017197;28;20045;-85
2022/01/04 12:29:04;;;;;;;6.93;1.60;;;5.90;99.90;;;;;;4996683;28;20621;-85
2022/01/04 12:31:35;;;;;;;6.00;1.50;;;5.90;99.90;;;;;;5010862;28;20110;-84
2022/01/04 12:34:07;;;;;;;8.80;1.50;;;5.90;99.90;;;;;;4974457;28;20033;-85
2022/01/04 12:36:38;;;;;;;6.72;1.50;;;5.90;99.90;;;;;;5001922;28;20045;-85
2022/01/04 12:39:10;;;;;;;7.32;1.50;;;5.90;99.90;;;;;;4994131;28;20033;-85
2022/01/04 12:41:38;;;;;;;8.60;1.50;;;5.90;99.90;;;;;;4998199;28;20041;-84
2022/01/04 12:44:05;;;;;;;8.50;1.90;;;6.30;99.90;;;;;;4976997;28;20034;-84
2022/01/04 12:46:34;;;;;;;8.50;1.75;;;5.80;99.90;;;;;;4993038;28;20431;-85
2022/01/04 12:49:03;;;;;;;11.35;1.70;;;5.90;99.90;;;;;;5006381;28;20037;-84
2022/01/04 12:51:35;;;;;;;14.60;1.60;;;5.90;99.90;;;;;;5013535;28;20072;-85
2022/01/04 12:54:15;;;;;;;8.85;1.63;;;5.90;99.90;;;;;;5013710;28;20041;-84
2022/01/04 12:56:49;;;;;;;11.15;1.77;;;5.90;99.90;;;;;;4996749;28;20056;-85
2022/01/04 12:59:27;;;;;;;7.22;1.63;;;5.90;99.90;;;;;;4996610;28;20203;-85
2022/01/04 13:01:56;;;;;;;8.88;1.70;;;5.90;99.90;;;;;;4997028;28;20037;-85
2022/01/04 13:04:33;;;;;;;9.82;1.67;;;5.90;99.90;;;;;;4996649;28;20073;-85
2022/01/04 13:07:00;;;;;;;7.70;1.85;;;5.90;99.90;;;;;;4984675;28;20054;-85
2022/01/04 13:09:27;;;;;;;6.35;1.70;;;5.90;99.90;;;;;;5027980;28;20045;-85
2022/01/04 13:11:58;;;;;;;9.95;2.05;;;5.90;99.90;;;;;;4980133;28;20522;-85